GLRBDIYO

Guest
Details From GLRB - MONROVIA ROBERTS INTL
To DIYO - YAMOUSSOUKRO
Flight Number -
Tags decoded
Created
Modified
Stats Distance 336 nm / 623 km
Max Altitude 0 ft / 0 m
Waypoints 5
Social Downloads 1
Likes 0
Share VATSIM

Download

Looking for another format? Having issues loading an existing format? Contact us
Advertisement - Login to hide

Notes

Requested: GLRB RITAM UB600 BUSOT DIYO

Route

GLRB RITAM UB600 BUSOT DIYO

ID Type Via Altitude Latitude Longitude Leg Dist Tot Dist Heading (true) Name
O GLRB APT - 0 ft / 0 m 6.23379˚ -10.36231˚ - 0 nm - MONROVIA ROBERTS INTL
RITAM FIX - 0 ft / 0 m 6.00356˚ -8.70143˚ 100 nm 100 nm 98° / 98° -
MEGOT FIX UB600 (AWY-HI) 0 ft / 0 m 5.81167˚ -7.44167˚ 76 nm 176 nm 99° / 99° -
BUSOT FIX UB600 (AWY-HI) 0 ft / 0 m 5.65556˚ -6.39750˚ 63 nm 239 nm 98° / 99° -
O DIYO APT - 0 ft / 0 m 6.90317˚ -5.36558˚ 96 nm 336 nm 39° / 39° YAMOUSSOUKRO

Altitude Profile

Advertisement - Login to hide

Weather


0- 5 10 15 20 25 30 35+ Temperature / ° C

Clouds and Precipitation
Forecast for 2018-05-22 00:00 UTC. Updated 5 hours ago

Ground ~20,000 ft ~40,000 ft Winds

GLRB

Details ICAO GLRB (ROB)
Name MONROVIA ROBERTS INTL
Region Liberia
Timezone Africa/Monrovia (UTC+0.0)
Stats Elevation 31 ft / 9 m (AMSL)
Location 6.233790° -10.362312°
Runways 1
Magnetic Variation 6.656° W

METAR

Not found

TAF

TAF GLRB 212200Z 2200/2306 07004KT 9999 SCT013 BECMG 2202/2204 VRB03KT 8000 TEMPO 2207/2211 21008KT 9999 BKN016

Decode

Departure Runways

ID Width Length Bearing (true) Bearing (mag) Surface Threshold Offset Overrun Length
04 150 ft / 46 m 11,029 ft / 3,362 m 30.94° 37.60° Asphalt 0 ft / 0 m 0 ft / 0 m
22 150 ft / 46 m 11,029 ft / 3,362 m 210.94° 217.60° Asphalt 1,200 ft / 366 m 0 ft / 0 m

DIYO

Details ICAO DIYO (ASK)
Name YAMOUSSOUKRO
Region Côte d'Ivoire
Timezone Africa/Abidjan (UTC+0.0)
Stats Elevation 699 ft / 213 m (AMSL)
Location 6.903166° -5.365579°
Runways 1
Magnetic Variation 4.637° W

METAR

Not found

TAF

TAF DIYO 212300Z 2200/2224 22004KT 9999 SCT013 TEMPO 2216/2220 TS BKN013 FEW025CB

Decode

Destination Runways

ID Width Length Bearing (true) Bearing (mag) Surface Threshold Offset Overrun Length
05 148 ft / 45 m 9,946 ft / 3,032 m 41.92° 46.56° Asphalt 0 ft / 0 m 330 ft / 101 m
23 148 ft / 45 m 9,946 ft / 3,032 m 221.92° 226.56° Asphalt 0 ft / 0 m 330 ft / 101 m

Popular Alternatives